sensor_id;sensor_type;location;lat;lon;timestamp;temperature;humidity
68701;DHT22;55682;51.114;5.882;2024-01-16T00:00:12;3.00;85.09
68701;DHT22;55682;51.114;5.882;2024-01-16T00:02:38;3.01;85.17
68701;DHT22;55682;51.114;5.882;2024-01-16T00:05:04;3.01;85.11
68701;DHT22;55682;51.114;5.882;2024-01-16T00:07:29;3.00;85.30
68701;DHT22;55682;51.114;5.882;2024-01-16T00:09:55;3.01;85.25
68701;DHT22;55682;51.114;5.882;2024-01-16T00:12:21;3.01;85.11
68701;DHT22;55682;51.114;5.882;2024-01-16T00:14:46;3.05;84.81
68701;DHT22;55682;51.114;5.882;2024-01-16T00:17:12;3.01;85.00
68701;DHT22;55682;51.114;5.882;2024-01-16T00:19:37;2.98;85.55
68701;DHT22;55682;51.114;5.882;2024-01-16T00:22:03;2.97;85.58
68701;DHT22;55682;51.114;5.882;2024-01-16T00:24:30;2.96;85.90
68701;DHT22;55682;51.114;5.882;2024-01-16T00:26:56;3.01;85.75
68701;DHT22;55682;51.114;5.882;2024-01-16T00:29:22;3.02;85.68
68701;DHT22;55682;51.114;5.882;2024-01-16T00:31:47;2.99;85.62
68701;DHT22;55682;51.114;5.882;2024-01-16T00:34:13;2.97;85.52
68701;DHT22;55682;51.114;5.882;2024-01-16T00:36:39;3.01;85.56
68701;DHT22;55682;51.114;5.882;2024-01-16T00:39:05;3.02;85.57
68701;DHT22;55682;51.114;5.882;2024-01-16T00:41:30;3.06;85.36
68701;DHT22;55682;51.114;5.882;2024-01-16T00:43:56;3.08;85.14
68701;DHT22;55682;51.114;5.882;2024-01-16T00:46:22;3.09;85.00
68701;DHT22;55682;51.114;5.882;2024-01-16T00:48:47;3.03;84.92
68701;DHT22;55682;51.114;5.882;2024-01-16T00:51:13;3.01;84.96
68701;DHT22;55682;51.114;5.882;2024-01-16T00:53:43;3.04;84.72
68701;DHT22;55682;51.114;5.882;2024-01-16T00:56:09;2.99;84.44
68701;DHT22;55682;51.114;5.882;2024-01-16T00:58:35;3.00;84.39
68701;DHT22;55682;51.114;5.882;2024-01-16T01:01:01;3.01;84.22
68701;DHT22;55682;51.114;5.882;2024-01-16T01:03:27;3.05;84.32
68701;DHT22;55682;51.114;5.882;2024-01-16T01:05:52;3.06;84.23
68701;DHT22;55682;51.114;5.882;2024-01-16T01:08:18;3.09;84.24
68701;DHT22;55682;51.114;5.882;2024-01-16T01:10:44;3.09;84.03
68701;DHT22;55682;51.114;5.882;2024-01-16T01:13:10;3.12;83.95
68701;DHT22;55682;51.114;5.882;2024-01-16T01:15:35;3.14;83.80
68701;DHT22;55682;51.114;5.882;2024-01-16T01:18:01;3.18;83.56
68701;DHT22;55682;51.114;5.882;2024-01-16T01:20:27;3.18;83.40
68701;DHT22;55682;51.114;5.882;2024-01-16T01:22:52;3.19;82.71
68701;DHT22;55682;51.114;5.882;2024-01-16T01:25:18;3.21;82.75
68701;DHT22;55682;51.114;5.882;2024-01-16T01:27:44;3.20;82.89
68701;DHT22;55682;51.114;5.882;2024-01-16T01:30:10;3.19;82.65
68701;DHT22;55682;51.114;5.882;2024-01-16T01:32:37;3.20;82.81
68701;DHT22;55682;51.114;5.882;2024-01-16T01:35:03;3.25;82.51
68701;DHT22;55682;51.114;5.882;2024-01-16T01:37:29;3.26;82.49
68701;DHT22;55682;51.114;5.882;2024-01-16T01:39:55;3.20;82.37
68701;DHT22;55682;51.114;5.882;2024-01-16T01:42:20;3.17;82.62
68701;DHT22;55682;51.114;5.882;2024-01-16T01:44:46;3.11;82.97
68701;DHT22;55682;51.114;5.882;2024-01-16T01:47:12;3.11;83.18
68701;DHT22;55682;51.114;5.882;2024-01-16T01:49:38;3.13;83.06
68701;DHT22;55682;51.114;5.882;2024-01-16T01:52:05;3.13;83.19
68701;DHT22;55682;51.114;5.882;2024-01-16T01:54:35;3.13;83.16
68701;DHT22;55682;51.114;5.882;2024-01-16T01:57:02;3.12;83.16
68701;DHT22;55682;51.114;5.882;2024-01-16T01:59:29;3.19;82.58
68701;DHT22;55682;51.114;5.882;2024-01-16T02:01:56;3.14;83.04
68701;DHT22;55682;51.114;5.882;2024-01-16T02:04:22;3.11;83.34
68701;DHT22;55682;51.114;5.882;2024-01-16T02:06:48;3.12;83.32
68701;DHT22;55682;51.114;5.882;2024-01-16T02:09:14;3.15;83.45
68701;DHT22;55682;51.114;5.882;2024-01-16T02:11:41;3.14;83.57
68701;DHT22;55682;51.114;5.882;2024-01-16T02:14:08;3.17;83.41
68701;DHT22;55682;51.114;5.882;2024-01-16T02:16:39;3.15;83.39
68701;DHT22;55682;51.114;5.882;2024-01-16T02:19:06;3.15;83.86
68701;DHT22;55682;51.114;5.882;2024-01-16T02:21:39;3.08;84.23
68701;DHT22;55682;51.114;5.882;2024-01-16T02:24:08;3.06;84.42
68701;DHT22;55682;51.114;5.882;2024-01-16T02:26:35;3.13;84.44
68701;DHT22;55682;51.114;5.882;2024-01-16T02:29:01;3.12;84.58
68701;DHT22;55682;51.114;5.882;2024-01-16T02:31:27;3.19;84.52
68701;DHT22;55682;51.114;5.882;2024-01-16T02:33:53;3.18;84.53
68701;DHT22;55682;51.114;5.882;2024-01-16T02:36:19;3.19;84.31
68701;DHT22;55682;51.114;5.882;2024-01-16T02:38:44;3.15;84.36
68701;DHT22;55682;51.114;5.882;2024-01-16T02:41:14;3.18;84.15
68701;DHT22;55682;51.114;5.882;2024-01-16T02:43:42;3.23;83.71
68701;DHT22;55682;51.114;5.882;2024-01-16T02:46:07;3.13;83.99
68701;DHT22;55682;51.114;5.882;2024-01-16T02:48:35;3.05;84.55
68701;DHT22;55682;51.114;5.882;2024-01-16T02:51:01;3.03;84.65
68701;DHT22;55682;51.114;5.882;2024-01-16T02:53:27;3.04;84.80
68701;DHT22;55682;51.114;5.882;2024-01-16T02:55:54;3.02;84.74
68701;DHT22;55682;51.114;5.882;2024-01-16T02:58:20;3.05;85.03
68701;DHT22;55682;51.114;5.882;2024-01-16T03:00:47;3.08;84.96
68701;DHT22;55682;51.114;5.882;2024-01-16T03:03:12;3.06;84.91
68701;DHT22;55682;51.114;5.882;2024-01-16T03:05:40;3.09;85.09
68701;DHT22;55682;51.114;5.882;2024-01-16T03:08:06;3.13;84.96
68701;DHT22;55682;51.114;5.882;2024-01-16T03:10:32;3.19;84.51
68701;DHT22;55682;51.114;5.882;2024-01-16T03:12:58;3.20;83.84
68701;DHT22;55682;51.114;5.882;2024-01-16T03:15:24;3.19;83.26
68701;DHT22;55682;51.114;5.882;2024-01-16T03:17:50;3.13;83.42
68701;DHT22;55682;51.114;5.882;2024-01-16T03:20:17;3.13;83.30
68701;DHT22;55682;51.114;5.882;2024-01-16T03:22:44;3.09;83.05
68701;DHT22;55682;51.114;5.882;2024-01-16T03:25:10;2.99;83.30
68701;DHT22;55682;51.114;5.882;2024-01-16T03:27:36;2.97;83.11
68701;DHT22;55682;51.114;5.882;2024-01-16T03:30:02;2.97;83.03
68701;DHT22;55682;51.114;5.882;2024-01-16T03:32:28;2.95;82.89
68701;DHT22;55682;51.114;5.882;2024-01-16T03:34:55;2.91;82.73
68701;DHT22;55682;51.114;5.882;2024-01-16T03:37:20;2.94;82.47
68701;DHT22;55682;51.114;5.882;2024-01-16T03:39:46;2.86;82.14
68701;DHT22;55682;51.114;5.882;2024-01-16T03:42:12;2.82;81.90
68701;DHT22;55682;51.114;5.882;2024-01-16T03:44:40;2.72;82.30
68701;DHT22;55682;51.114;5.882;2024-01-16T03:47:06;2.72;82.11
68701;DHT22;55682;51.114;5.882;2024-01-16T03:49:33;2.62;82.42
68701;DHT22;55682;51.114;5.882;2024-01-16T03:51:58;2.62;82.05
68701;DHT22;55682;51.114;5.882;2024-01-16T03:54:24;2.61;81.84
68701;DHT22;55682;51.114;5.882;2024-01-16T03:56:51;2.49;81.97
68701;DHT22;55682;51.114;5.882;2024-01-16T03:59:16;2.44;81.96
68701;DHT22;55682;51.114;5.882;2024-01-16T04:01:42;2.36;81.92
68701;DHT22;55682;51.114;5.882;2024-01-16T04:04:10;2.32;81.75
68701;DHT22;55682;51.114;5.882;2024-01-16T04:06:36;2.26;82.10
68701;DHT22;55682;51.114;5.882;2024-01-16T04:09:02;2.29;81.95
68701;DHT22;55682;51.114;5.882;2024-01-16T04:11:29;2.22;81.94
68701;DHT22;55682;51.114;5.882;2024-01-16T04:13:56;2.19;81.81
68701;DHT22;55682;51.114;5.882;2024-01-16T04:16:22;2.16;81.74
68701;DHT22;55682;51.114;5.882;2024-01-16T04:18:47;2.11;81.98
68701;DHT22;55682;51.114;5.882;2024-01-16T04:21:13;2.12;81.56
68701;DHT22;55682;51.114;5.882;2024-01-16T04:23:39;2.01;81.92
68701;DHT22;55682;51.114;5.882;2024-01-16T04:26:06;2.09;81.79
68701;DHT22;55682;51.114;5.882;2024-01-16T04:28:33;2.00;81.81
68701;DHT22;55682;51.114;5.882;2024-01-16T04:31:00;1.97;82.12
68701;DHT22;55682;51.114;5.882;2024-01-16T04:33:27;1.94;82.28
68701;DHT22;55682;51.114;5.882;2024-01-16T04:35:52;1.91;82.42
68701;DHT22;55682;51.114;5.882;2024-01-16T04:38:18;1.93;82.60
68701;DHT22;55682;51.114;5.882;2024-01-16T04:40:44;1.96;81.97
68701;DHT22;55682;51.114;5.882;2024-01-16T04:43:09;1.97;81.72
68701;DHT22;55682;51.114;5.882;2024-01-16T04:45:35;1.96;81.75
68701;DHT22;55682;51.114;5.882;2024-01-16T04:48:00;1.86;82.04
68701;DHT22;55682;51.114;5.882;2024-01-16T04:50:26;1.81;82.07
68701;DHT22;55682;51.114;5.882;2024-01-16T04:52:57;1.84;82.05
68701;DHT22;55682;51.114;5.882;2024-01-16T04:55:26;1.80;81.97
68701;DHT22;55682;51.114;5.882;2024-01-16T04:57:52;1.78;81.98
68701;DHT22;55682;51.114;5.882;2024-01-16T05:04:06;1.72;81.81
68701;DHT22;55682;51.114;5.882;2024-01-16T05:10:21;1.64;81.98
68701;DHT22;55682;51.114;5.882;2024-01-16T05:12:46;1.66;81.67
68701;DHT22;55682;51.114;5.882;2024-01-16T05:15:12;1.68;81.68
68701;DHT22;55682;51.114;5.882;2024-01-16T05:17:38;1.75;81.03
68701;DHT22;55682;51.114;5.882;2024-01-16T05:20:04;1.57;81.72
68701;DHT22;55682;51.114;5.882;2024-01-16T05:22:30;1.63;81.62
68701;DHT22;55682;51.114;5.882;2024-01-16T05:24:55;1.57;81.65
68701;DHT22;55682;51.114;5.882;2024-01-16T05:27:22;1.56;81.94
68701;DHT22;55682;51.114;5.882;2024-01-16T05:29:48;1.61;81.78
68701;DHT22;55682;51.114;5.882;2024-01-16T05:32:14;1.64;81.36
68701;DHT22;55682;51.114;5.882;2024-01-16T05:34:39;1.63;81.55
68701;DHT22;55682;51.114;5.882;2024-01-16T05:37:05;1.62;81.23
68701;DHT22;55682;51.114;5.882;2024-01-16T05:39:31;1.58;81.29
68701;DHT22;55682;51.114;5.882;2024-01-16T05:41:57;1.58;81.17
68701;DHT22;55682;51.114;5.882;2024-01-16T05:44:23;1.50;81.46
68701;DHT22;55682;51.114;5.882;2024-01-16T05:46:48;1.52;80.95
68701;DHT22;55682;51.114;5.882;2024-01-16T05:49:14;1.50;80.98
68701;DHT22;55682;51.114;5.882;2024-01-16T05:51:40;1.50;80.77
68701;DHT22;55682;51.114;5.882;2024-01-16T05:54:05;1.45;80.92
68701;DHT22;55682;51.114;5.882;2024-01-16T05:56:31;1.43;80.74
68701;DHT22;55682;51.114;5.882;2024-01-16T05:58:57;1.38;80.72
68701;DHT22;55682;51.114;5.882;2024-01-16T06:01:23;1.33;80.82
68701;DHT22;55682;51.114;5.882;2024-01-16T06:03:48;1.18;80.85
68701;DHT22;55682;51.114;5.882;2024-01-16T06:06:15;1.12;80.95
68701;DHT22;55682;51.114;5.882;2024-01-16T06:08:40;1.18;80.93
68701;DHT22;55682;51.114;5.882;2024-01-16T06:11:07;1.16;80.77
68701;DHT22;55682;51.114;5.882;2024-01-16T06:13:32;1.16;80.76
68701;DHT22;55682;51.114;5.882;2024-01-16T06:15:58;1.17;80.78
68701;DHT22;55682;51.114;5.882;2024-01-16T06:18:24;1.22;80.27
68701;DHT22;55682;51.114;5.882;2024-01-16T06:20:49;1.11;80.69
68701;DHT22;55682;51.114;5.882;2024-01-16T06:23:15;1.09;80.52
68701;DHT22;55682;51.114;5.882;2024-01-16T06:25:41;1.21;79.95
68701;DHT22;55682;51.114;5.882;2024-01-16T06:28:06;1.24;80.01
68701;DHT22;55682;51.114;5.882;2024-01-16T06:30:32;1.34;79.43
68701;DHT22;55682;51.114;5.882;2024-01-16T06:32:58;1.26;80.01
68701;DHT22;55682;51.114;5.882;2024-01-16T06:35:24;1.34;79.81
68701;DHT22;55682;51.114;5.882;2024-01-16T06:37:49;1.38;79.50
68701;DHT22;55682;51.114;5.882;2024-01-16T06:40:15;1.41;79.37
68701;DHT22;55682;51.114;5.882;2024-01-16T06:42:41;1.41;78.95
68701;DHT22;55682;51.114;5.882;2024-01-16T06:45:07;1.26;79.06
68701;DHT22;55682;51.114;5.882;2024-01-16T06:47:33;1.32;78.85
68701;DHT22;55682;51.114;5.882;2024-01-16T06:49:58;1.20;78.93
68701;DHT22;55682;51.114;5.882;2024-01-16T06:52:24;1.12;79.30
68701;DHT22;55682;51.114;5.882;2024-01-16T06:54:50;1.09;79.33
68701;DHT22;55682;51.114;5.882;2024-01-16T06:57:16;1.13;78.72
68701;DHT22;55682;51.114;5.882;2024-01-16T06:59:41;0.97;79.30
68701;DHT22;55682;51.114;5.882;2024-01-16T07:02:07;0.97;79.63
68701;DHT22;55682;51.114;5.882;2024-01-16T07:04:33;0.93;79.70
68701;DHT22;55682;51.114;5.882;2024-01-16T07:06:59;0.96;79.38
68701;DHT22;55682;51.114;5.882;2024-01-16T07:09:25;0.96;79.28
68701;DHT22;55682;51.114;5.882;2024-01-16T07:11:53;0.84;79.62
68701;DHT22;55682;51.114;5.882;2024-01-16T07:14:19;0.93;79.31
68701;DHT22;55682;51.114;5.882;2024-01-16T07:16:45;0.93;79.04
68701;DHT22;55682;51.114;5.882;2024-01-16T07:19:10;0.90;79.16
68701;DHT22;55682;51.114;5.882;2024-01-16T07:21:37;0.84;79.37
68701;DHT22;55682;51.114;5.882;2024-01-16T07:24:03;0.89;78.99
68701;DHT22;55682;51.114;5.882;2024-01-16T07:26:29;0.93;78.96
68701;DHT22;55682;51.114;5.882;2024-01-16T07:28:55;0.92;78.71
68701;DHT22;55682;51.114;5.882;2024-01-16T07:31:21;0.93;78.65
68701;DHT22;55682;51.114;5.882;2024-01-16T07:33:47;0.88;78.55
68701;DHT22;55682;51.114;5.882;2024-01-16T07:36:13;0.86;78.87
68701;DHT22;55682;51.114;5.882;2024-01-16T07:38:39;0.90;78.79
68701;DHT22;55682;51.114;5.882;2024-01-16T07:41:05;0.93;78.72
68701;DHT22;55682;51.114;5.882;2024-01-16T07:43:31;0.94;78.30
68701;DHT22;55682;51.114;5.882;2024-01-16T07:45:57;0.96;77.72
68701;DHT22;55682;51.114;5.882;2024-01-16T07:48:23;0.88;78.48
68701;DHT22;55682;51.114;5.882;2024-01-16T07:50:49;1.03;77.91
68701;DHT22;55682;51.114;5.882;2024-01-16T07:53:15;1.02;78.10
68701;DHT22;55682;51.114;5.882;2024-01-16T07:55:41;1.07;77.99
68701;DHT22;55682;51.114;5.882;2024-01-16T07:58:07;1.14;77.44
68701;DHT22;55682;51.114;5.882;2024-01-16T08:00:33;1.26;76.97
68701;DHT22;55682;51.114;5.882;2024-01-16T08:02:58;1.27;77.08
68701;DHT22;55682;51.114;5.882;2024-01-16T08:05:24;1.36;76.79
68701;DHT22;55682;51.114;5.882;2024-01-16T08:07:54;1.42;76.71
68701;DHT22;55682;51.114;5.882;2024-01-16T08:10:19;1.45;76.22
68701;DHT22;55682;51.114;5.882;2024-01-16T08:12:45;1.55;75.57
68701;DHT22;55682;51.114;5.882;2024-01-16T08:15:11;1.61;75.23
68701;DHT22;55682;51.114;5.882;2024-01-16T08:17:37;1.67;75.63
68701;DHT22;55682;51.114;5.882;2024-01-16T08:20:02;1.81;75.51
68701;DHT22;55682;51.114;5.882;2024-01-16T08:22:29;1.95;74.86
68701;DHT22;55682;51.114;5.882;2024-01-16T08:24:55;2.02;74.23
68701;DHT22;55682;51.114;5.882;2024-01-16T08:27:20;2.13;73.25
68701;DHT22;55682;51.114;5.882;2024-01-16T08:29:46;2.09;73.64
68701;DHT22;55682;51.114;5.882;2024-01-16T08:32:16;2.23;73.29
68701;DHT22;55682;51.114;5.882;2024-01-16T08:34:43;2.25;72.70
68701;DHT22;55682;51.114;5.882;2024-01-16T08:37:09;2.23;72.58
68701;DHT22;55682;51.114;5.882;2024-01-16T08:39:35;2.27;72.16
68701;DHT22;55682;51.114;5.882;2024-01-16T08:42:01;2.16;72.47
68701;DHT22;55682;51.114;5.882;2024-01-16T08:44:28;2.03;72.69
68701;DHT22;55682;51.114;5.882;2024-01-16T08:46:54;2.13;72.16
68701;DHT22;55682;51.114;5.882;2024-01-16T08:49:20;2.05;72.57
68701;DHT22;55682;51.114;5.882;2024-01-16T08:51:45;2.14;72.25
68701;DHT22;55682;51.114;5.882;2024-01-16T08:54:13;2.17;71.98
68701;DHT22;55682;51.114;5.882;2024-01-16T08:56:38;2.22;72.38
68701;DHT22;55682;51.114;5.882;2024-01-16T08:59:04;2.34;72.39
68701;DHT22;55682;51.114;5.882;2024-01-16T09:01:29;2.41;72.32
68701;DHT22;55682;51.114;5.882;2024-01-16T09:03:55;2.51;71.43
68701;DHT22;55682;51.114;5.882;2024-01-16T09:06:21;2.52;72.01
68701;DHT22;55682;51.114;5.882;2024-01-16T09:08:47;2.68;70.05
68701;DHT22;55682;51.114;5.882;2024-01-16T09:11:12;2.58;70.49
68701;DHT22;55682;51.114;5.882;2024-01-16T09:13:38;2.60;70.90
68701;DHT22;55682;51.114;5.882;2024-01-16T09:16:04;2.66;70.25
68701;DHT22;55682;51.114;5.882;2024-01-16T09:18:34;2.70;70.93
68701;DHT22;55682;51.114;5.882;2024-01-16T09:20:59;2.84;70.53
68701;DHT22;55682;51.114;5.882;2024-01-16T09:23:25;2.91;69.95
68701;DHT22;55682;51.114;5.882;2024-01-16T09:25:51;2.96;70.21
68701;DHT22;55682;51.114;5.882;2024-01-16T09:28:16;3.02;69.90
68701;DHT22;55682;51.114;5.882;2024-01-16T09:30:42;3.15;69.68
68701;DHT22;55682;51.114;5.882;2024-01-16T09:33:08;3.31;69.18
68701;DHT22;55682;51.114;5.882;2024-01-16T09:35:36;3.41;68.46
68701;DHT22;55682;51.114;5.882;2024-01-16T09:38:03;3.48;67.85
68701;DHT22;55682;51.114;5.882;2024-01-16T09:40:30;3.62;67.97
68701;DHT22;55682;51.114;5.882;2024-01-16T09:42:56;3.67;67.86
68701;DHT22;55682;51.114;5.882;2024-01-16T09:45:22;3.95;67.20
68701;DHT22;55682;51.114;5.882;2024-01-16T09:47:51;4.06;66.48
68701;DHT22;55682;51.114;5.882;2024-01-16T09:50:18;4.30;66.06
68701;DHT22;55682;51.114;5.882;2024-01-16T09:52:48;4.48;66.36
68701;DHT22;55682;51.114;5.882;2024-01-16T09:55:15;4.72;63.56
68701;DHT22;55682;51.114;5.882;2024-01-16T09:57:41;4.59;63.63
68701;DHT22;55682;51.114;5.882;2024-01-16T10:00:12;4.50;63.44
68701;DHT22;55682;51.114;5.882;2024-01-16T10:02:42;4.43;63.89
68701;DHT22;55682;51.114;5.882;2024-01-16T10:05:09;4.45;64.30
68701;DHT22;55682;51.114;5.882;2024-01-16T10:07:39;4.86;65.42
68701;DHT22;55682;51.114;5.882;2024-01-16T10:10:06;5.45;64.64
68701;DHT22;55682;51.114;5.882;2024-01-16T10:12:33;5.87;62.29
68701;DHT22;55682;51.114;5.882;2024-01-16T10:14:59;6.42;59.67
68701;DHT22;55682;51.114;5.882;2024-01-16T10:17:36;6.83;57.74
68701;DHT22;55682;51.114;5.882;2024-01-16T10:20:02;7.11;57.19
68701;DHT22;55682;51.114;5.882;2024-01-16T10:22:30;7.28;57.11
68701;DHT22;55682;51.114;5.882;2024-01-16T10:27:33;8.05;54.82
68701;DHT22;55682;51.114;5.882;2024-01-16T10:29:59;8.29;53.48
68701;DHT22;55682;51.114;5.882;2024-01-16T10:32:27;8.80;52.72
68701;DHT22;55682;51.114;5.882;2024-01-16T10:35:06;9.25;51.04
68701;DHT22;55682;51.114;5.882;2024-01-16T10:37:51;9.72;50.85
68701;DHT22;55682;51.114;5.882;2024-01-16T10:40:19;9.98;47.22
68701;DHT22;55682;51.114;5.882;2024-01-16T10:43:07;9.75;47.41
68701;DHT22;55682;51.114;5.882;2024-01-16T10:45:33;9.60;48.15
68701;DHT22;55682;51.114;5.882;2024-01-16T10:48:08;9.84;46.35
68701;DHT22;55682;51.114;5.882;2024-01-16T10:50:36;9.74;47.15
68701;DHT22;55682;51.114;5.882;2024-01-16T10:53:07;9.84;48.63
68701;DHT22;55682;51.114;5.882;2024-01-16T10:55:59;10.29;46.52
68701;DHT22;55682;51.114;5.882;2024-01-16T10:58:25;10.39;46.38
68701;DHT22;55682;51.114;5.882;2024-01-16T11:00:57;10.39;45.14
68701;DHT22;55682;51.114;5.882;2024-01-16T11:03:34;10.26;45.06
68701;DHT22;55682;51.114;5.882;2024-01-16T11:06:00;10.20;45.61
68701;DHT22;55682;51.114;5.882;2024-01-16T11:08:27;10.22;45.70
68701;DHT22;55682;51.114;5.882;2024-01-16T11:10:58;10.20;45.02
68701;DHT22;55682;51.114;5.882;2024-01-16T11:13:25;9.90;45.19
68701;DHT22;55682;51.114;5.882;2024-01-16T11:15:53;10.05;44.67
68701;DHT22;55682;51.114;5.882;2024-01-16T11:18:20;9.72;45.05
68701;DHT22;55682;51.114;5.882;2024-01-16T11:20:46;9.67;46.83
68701;DHT22;55682;51.114;5.882;2024-01-16T11:23:13;10.04;45.83
68701;DHT22;55682;51.114;5.882;2024-01-16T11:25:39;10.11;45.90
68701;DHT22;55682;51.114;5.882;2024-01-16T11:28:10;10.16;45.52
68701;DHT22;55682;51.114;5.882;2024-01-16T11:30:37;10.27;46.44
68701;DHT22;55682;51.114;5.882;2024-01-16T11:33:03;10.33;44.94
68701;DHT22;55682;51.114;5.882;2024-01-16T11:35:36;10.55;45.61
68701;DHT22;55682;51.114;5.882;2024-01-16T11:38:04;10.83;44.27
68701;DHT22;55682;51.114;5.882;2024-01-16T11:40:34;10.90;44.50
68701;DHT22;55682;51.114;5.882;2024-01-16T11:45:58;11.18;44.26
68701;DHT22;55682;51.114;5.882;2024-01-16T11:48:24;11.31;42.77
68701;DHT22;55682;51.114;5.882;2024-01-16T11:50:51;11.33;43.21
68701;DHT22;55682;51.114;5.882;2024-01-16T11:59:40;11.37;41.91
68701;DHT22;55682;51.114;5.882;2024-01-16T12:02:20;11.20;42.19
68701;DHT22;55682;51.114;5.882;2024-01-16T12:04:55;11.10;43.00
68701;DHT22;55682;51.114;5.882;2024-01-16T12:07:24;11.15;44.12
68701;DHT22;55682;51.114;5.882;2024-01-16T12:09:50;11.52;42.55
68701;DHT22;55682;51.114;5.882;2024-01-16T12:12:16;11.41;40.99
68701;DHT22;55682;51.114;5.882;2024-01-16T12:14:51;10.89;42.48
68701;DHT22;55682;51.114;5.882;2024-01-16T12:17:19;10.83;44.09
68701;DHT22;55682;51.114;5.882;2024-01-16T12:19:46;10.82;43.22
68701;DHT22;55682;51.114;5.882;2024-01-16T12:22:16;10.82;43.32
68701;DHT22;55682;51.114;5.882;2024-01-16T12:24:47;10.72;43.32
68701;DHT22;55682;51.114;5.882;2024-01-16T12:27:13;10.56;43.50
68701;DHT22;55682;51.114;5.882;2024-01-16T12:29:39;10.52;43.46
68701;DHT22;55682;51.114;5.882;2024-01-16T12:32:10;10.39;43.68
68701;DHT22;55682;51.114;5.882;2024-01-16T12:34:47;10.38;42.88
68701;DHT22;55682;51.114;5.882;2024-01-16T12:37:16;10.00;43.35
68701;DHT22;55682;51.114;5.882;2024-01-16T12:39:42;9.94;44.19
68701;DHT22;55682;51.114;5.882;2024-01-16T12:42:10;9.72;43.74
68701;DHT22;55682;51.114;5.882;2024-01-16T12:44:37;9.69;44.99
68701;DHT22;55682;51.114;5.882;2024-01-16T12:47:03;9.71;44.92
68701;DHT22;55682;51.114;5.882;2024-01-16T12:49:29;9.62;45.11
68701;DHT22;55682;51.114;5.882;2024-01-16T12:52:14;9.74;44.26
68701;DHT22;55682;51.114;5.882;2024-01-16T12:54:40;9.67;44.10
68701;DHT22;55682;51.114;5.882;2024-01-16T12:57:06;9.54;44.36
68701;DHT22;55682;51.114;5.882;2024-01-16T12:59:31;9.45;45.05
68701;DHT22;55682;51.114;5.882;2024-01-16T13:01:58;9.49;44.30
68701;DHT22;55682;51.114;5.882;2024-01-16T13:04:24;9.25;44.32
68701;DHT22;55682;51.114;5.882;2024-01-16T13:06:49;9.16;45.03
68701;DHT22;55682;51.114;5.882;2024-01-16T13:09:15;9.09;45.82
68701;DHT22;55682;51.114;5.882;2024-01-16T13:11:59;9.12;46.73
68701;DHT22;55682;51.114;5.882;2024-01-16T13:14:25;9.00;46.86
68701;DHT22;55682;51.114;5.882;2024-01-16T13:16:52;8.83;45.61
68701;DHT22;55682;51.114;5.882;2024-01-16T13:19:21;8.55;46.38
68701;DHT22;55682;51.114;5.882;2024-01-16T13:21:50;8.26;47.02
68701;DHT22;55682;51.114;5.882;2024-01-16T13:24:16;8.04;47.99
68701;DHT22;55682;51.114;5.882;2024-01-16T13:26:49;7.87;47.80
68701;DHT22;55682;51.114;5.882;2024-01-16T13:29:14;7.67;49.02
68701;DHT22;55682;51.114;5.882;2024-01-16T13:31:41;7.57;49.82
68701;DHT22;55682;51.114;5.882;2024-01-16T13:34:06;7.47;50.39
68701;DHT22;55682;51.114;5.882;2024-01-16T13:36:32;7.41;50.21
68701;DHT22;55682;51.114;5.882;2024-01-16T13:38:58;7.37;49.56
68701;DHT22;55682;51.114;5.882;2024-01-16T13:41:24;7.11;49.93
68701;DHT22;55682;51.114;5.882;2024-01-16T13:43:50;7.01;50.40
68701;DHT22;55682;51.114;5.882;2024-01-16T13:46:15;6.90;50.50
68701;DHT22;55682;51.114;5.882;2024-01-16T13:48:43;6.75;51.30
68701;DHT22;55682;51.114;5.882;2024-01-16T13:51:09;6.64;51.05
68701;DHT22;55682;51.114;5.882;2024-01-16T13:53:36;6.55;52.01
68701;DHT22;55682;51.114;5.882;2024-01-16T13:56:01;6.63;51.94
68701;DHT22;55682;51.114;5.882;2024-01-16T13:58:27;6.48;51.76
68701;DHT22;55682;51.114;5.882;2024-01-16T14:00:53;6.40;52.25
68701;DHT22;55682;51.114;5.882;2024-01-16T14:03:19;6.42;51.83
68701;DHT22;55682;51.114;5.882;2024-01-16T14:05:46;6.28;52.53
68701;DHT22;55682;51.114;5.882;2024-01-16T14:08:12;6.27;52.77
68701;DHT22;55682;51.114;5.882;2024-01-16T14:10:38;6.35;52.46
68701;DHT22;55682;51.114;5.882;2024-01-16T14:13:04;6.35;53.20
68701;DHT22;55682;51.114;5.882;2024-01-16T14:15:30;6.35;52.64
68701;DHT22;55682;51.114;5.882;2024-01-16T14:17:56;6.27;53.00
68701;DHT22;55682;51.114;5.882;2024-01-16T14:20:24;6.29;53.08
68701;DHT22;55682;51.114;5.882;2024-01-16T14:22:55;6.29;53.04
68701;DHT22;55682;51.114;5.882;2024-01-16T14:25:22;6.25;52.87
68701;DHT22;55682;51.114;5.882;2024-01-16T14:28:02;6.20;53.02
68701;DHT22;55682;51.114;5.882;2024-01-16T14:30:32;6.15;52.91
68701;DHT22;55682;51.114;5.882;2024-01-16T14:32:58;6.09;52.65
68701;DHT22;55682;51.114;5.882;2024-01-16T14:35:25;6.00;53.07
68701;DHT22;55682;51.114;5.882;2024-01-16T14:37:51;5.96;53.21
68701;DHT22;55682;51.114;5.882;2024-01-16T14:40:17;5.93;53.16
68701;DHT22;55682;51.114;5.882;2024-01-16T14:42:47;5.92;53.20
68701;DHT22;55682;51.114;5.882;2024-01-16T14:45:23;5.94;52.86
68701;DHT22;55682;51.114;5.882;2024-01-16T14:47:50;6.00;52.11
68701;DHT22;55682;51.114;5.882;2024-01-16T14:50:17;5.79;52.92
68701;DHT22;55682;51.114;5.882;2024-01-16T14:52:48;5.71;53.44
68701;DHT22;55682;51.114;5.882;2024-01-16T14:55:14;5.67;53.66
68701;DHT22;55682;51.114;5.882;2024-01-16T14:57:40;5.70;53.87
68701;DHT22;55682;51.114;5.882;2024-01-16T15:00:18;5.76;53.67
68701;DHT22;55682;51.114;5.882;2024-01-16T15:02:55;5.70;53.92
68701;DHT22;55682;51.114;5.882;2024-01-16T15:05:22;5.68;53.78
68701;DHT22;55682;51.114;5.882;2024-01-16T15:07:49;5.66;53.98
68701;DHT22;55682;51.114;5.882;2024-01-16T15:10:17;5.54;54.47
68701;DHT22;55682;51.114;5.882;2024-01-16T15:12:44;5.53;54.27
68701;DHT22;55682;51.114;5.882;2024-01-16T15:18:57;5.30;54.49
68701;DHT22;55682;51.114;5.882;2024-01-16T15:21:23;5.18;54.87
68701;DHT22;55682;51.114;5.882;2024-01-16T15:23:48;5.07;55.71
68701;DHT22;55682;51.114;5.882;2024-01-16T15:26:14;5.05;55.71
68701;DHT22;55682;51.114;5.882;2024-01-16T15:28:45;5.01;56.06
68701;DHT22;55682;51.114;5.882;2024-01-16T15:31:11;4.95;56.62
68701;DHT22;55682;51.114;5.882;2024-01-16T15:33:39;4.90;56.22
68701;DHT22;55682;51.114;5.882;2024-01-16T15:36:05;4.81;56.29
68701;DHT22;55682;51.114;5.882;2024-01-16T15:38:31;4.75;56.29
68701;DHT22;55682;51.114;5.882;2024-01-16T15:40:57;4.64;56.40
68701;DHT22;55682;51.114;5.882;2024-01-16T15:43:23;4.61;56.48
68701;DHT22;55682;51.114;5.882;2024-01-16T15:45:48;4.49;56.85
68701;DHT22;55682;51.114;5.882;2024-01-16T15:48:14;4.42;57.05
68701;DHT22;55682;51.114;5.882;2024-01-16T15:50:40;4.33;57.24
68701;DHT22;55682;51.114;5.882;2024-01-16T15:53:06;4.23;57.55
68701;DHT22;55682;51.114;5.882;2024-01-16T15:55:31;4.17;57.76
68701;DHT22;55682;51.114;5.882;2024-01-16T15:57:57;4.12;57.85
68701;DHT22;55682;51.114;5.882;2024-01-16T16:00:24;4.02;58.22
68701;DHT22;55682;51.114;5.882;2024-01-16T16:02:50;3.91;58.51
68701;DHT22;55682;51.114;5.882;2024-01-16T16:05:16;3.88;58.68